This is the latest recevied weather packets stored in our database for station/object KN1OBI-13. If no packets are shown the sender has not sent any weather packets the latest 10 day(s).
| Time | Temp. | Humidity | Pressure | Rain* | Wind** | Luminosity | Snow |
|---|---|---|---|---|---|---|---|
| 1777144100 | 13.33° C | 36% | 995.8 hPa | 0 mm | - | - | - |
| 1777143500 | 14.44° C | 35% | 996.1 hPa | 0 mm | - | - | - |
| 1777142900 | 13.89° C | 37% | 996.2 hPa | 0 mm | - | - | - |
| 1777141100 | 14.44° C | 38% | 996.3 hPa | 0 mm | - | - | - |
| 1777140501 | 12.22° C | 39% | 996.5 hPa | 0 mm | - | - | - |
| 1777139900 | 11.67° C | 39% | 996.8 hPa | 0 mm | - | - | - |
| 1777138100 | 12.22° C | 38% | 996.4 hPa | 0 mm | - | - | - |
| 1777136902 | 12.22° C | 40% | 996.7 hPa | 0 mm | - | - | - |
| 1777136300 | 11.11° C | 40% | 996.9 hPa | 0 mm | - | - | - |
| 1777133300 | 10.56° C | 40% | 997.3 hPa | 0 mm | - | - | - |
| 1777132700 | 10° C | 41% | 997.5 hPa | 0 mm | - | - | - |
| 1777130900 | 10.56° C | 42% | 997.5 hPa | 0 mm | - | - | - |
| 1777126701 | 8.89° C | 46% | 997.6 hPa | 0 mm | - | - | - |
| 1777126100 | 8.89° C | 43% | 997.7 hPa | 0 mm | - | - | - |
| 1777123700 | 8.33° C | 45% | 997.7 hPa | 0 mm | - | - | - |
| 1777122499 | 8.33° C | 46% | 997.5 hPa | 0 mm | - | - | - |
| 1777120701 | 8.33° C | 49% | 997.6 hPa | 0 mm | - | - | - |
| 1777117700 | 6.11° C | 68% | 998.1 hPa | 0 mm | - | - | - |
| 1777117100 | 5° C | 72% | 997.7 hPa | 0 mm | - | - | - |
| 1777116501 | 2.22° C | 77% | 997.6 hPa | 0 mm | - | - | - |
| 1777115300 | 0.56° C | 80% | 997.4 hPa | 0 mm | - | - | - |
| 1777112900 | -0.56° C | 80% | 997.1 hPa | 0 mm | - | - | - |
| 1777112300 | -0.56° C | 80% | 997.2 hPa | 0 mm | - | - | - |
| 1777111701 | -0.56° C | 80% | 997 hPa | 0 mm | - | - | - |
| 1777111101 | -0.56° C | 80% | 997 hPa | 0 mm | - | - | - |
* Rain latest hour (hover to see other rain measurements)
** Current wind speed in m/s (hover to see current wind gust speed)